Black Creek, New York
Current Conditions -  °F | °C
As of 6:15 PM on Wednesday 26 Nov 2014 (Local Time) from KOLE Reporting Station
Haze Haze  
Wind Chill: 21°   Ceiling: 8500
Heat Index: 27°   Visibility: 5mi
Dew Point: 27°   Wind: 5mph
Humidity: 100%   Direction: 20°NNE
Pressure: 29.97"   Gusts: NA
Location:  42.28°N, 78.23°W
Report Text: KOLE 262315Z AUTO 02004KT 5SM BR OVC085 M03/M03 A2997 RMK AO2
Loading
Personal Weather Stations






























Interactive Weather Map New forecast layout! Learn more

10-Day Weather Forecast

Advertisements
Track Severe Weather on mobile